Terminal Aerodrome Forecast
Issued by NWS Charleston, WV

Home | Current Version | Previous Version | Text Only | Print | Product List | Glossary On
Versions: 1 2 3 4 5 6 7 8 9 10 11 12 13 14 15 16 17 18 19 20 21 22
000
FTUS41 KRLX 031700 RRA
TAFEKN
TAF
KEKN 031753Z 0318/0418 17009KT P6SM -RA OVC020
     FM032200 18010KT 6SM -RA BR OVC012
     FM040000 20009KT 4SM -RA BR OVC008
     FM040500 19005KT 2SM RA BR OVC005
     FM040900 30005KT 1SM +RA BR OVC003
     FM041300 32003KT 2SM RA BR OVC005
     FM041500 33004KT 2SM -RA BR OVC006=

USA.gov is the U.S. government's official web portal to all federal, state and local government web resources and services.